sensor_id;sensor_type;location;lat;lon;timestamp;temperature;humidity
67141;DHT22;54058;52.010;5.546;2022-09-17T00:02:01;12.90;74.60
67141;DHT22;54058;52.010;5.546;2022-09-17T00:04:27;12.80;74.50
67141;DHT22;54058;52.010;5.546;2022-09-17T00:06:53;12.80;74.50
67141;DHT22;54058;52.010;5.546;2022-09-17T00:09:18;12.80;74.60
67141;DHT22;54058;52.010;5.546;2022-09-17T00:11:44;12.80;74.60
67141;DHT22;54058;52.010;5.546;2022-09-17T00:14:15;12.80;74.60
67141;DHT22;54058;52.010;5.546;2022-09-17T00:16:44;12.80;74.60
67141;DHT22;54058;52.010;5.546;2022-09-17T00:19:17;12.70;74.50
67141;DHT22;54058;52.010;5.546;2022-09-17T00:21:43;12.80;74.70
67141;DHT22;54058;52.010;5.546;2022-09-17T00:24:10;12.80;74.60
67141;DHT22;54058;52.010;5.546;2022-09-17T00:26:36;12.80;74.60
67141;DHT22;54058;52.010;5.546;2022-09-17T00:29:02;12.80;74.60
67141;DHT22;54058;52.010;5.546;2022-09-17T00:31:29;12.80;74.70
67141;DHT22;54058;52.010;5.546;2022-09-17T00:33:57;12.80;74.80
67141;DHT22;54058;52.010;5.546;2022-09-17T00:36:22;12.70;74.80
67141;DHT22;54058;52.010;5.546;2022-09-17T00:38:53;12.70;76.00
67141;DHT22;54058;52.010;5.546;2022-09-17T00:41:20;12.60;75.10
67141;DHT22;54058;52.010;5.546;2022-09-17T00:43:49;12.60;75.10
67141;DHT22;54058;52.010;5.546;2022-09-17T00:49:25;12.60;75.30
67141;DHT22;54058;52.010;5.546;2022-09-17T00:52:18;12.60;75.20
67141;DHT22;54058;52.010;5.546;2022-09-17T00:54:46;12.60;75.10
67141;DHT22;54058;52.010;5.546;2022-09-17T00:57:13;12.60;75.10
67141;DHT22;54058;52.010;5.546;2022-09-17T00:59:40;12.60;75.10
67141;DHT22;54058;52.010;5.546;2022-09-17T01:02:06;12.60;75.10
67141;DHT22;54058;52.010;5.546;2022-09-17T01:04:32;12.60;75.10
67141;DHT22;54058;52.010;5.546;2022-09-17T01:07:08;12.50;75.00
67141;DHT22;54058;52.010;5.546;2022-09-17T01:09:44;12.40;75.00
67141;DHT22;54058;52.010;5.546;2022-09-17T01:26:22;12.30;75.70
67141;DHT22;54058;52.010;5.546;2022-09-17T01:31:41;12.40;75.30
67141;DHT22;54058;52.010;5.546;2022-09-17T01:37:33;12.40;75.40
67141;DHT22;54058;52.010;5.546;2022-09-17T01:40:11;12.30;75.10
67141;DHT22;54058;52.010;5.546;2022-09-17T01:45:32;12.30;75.80
67141;DHT22;54058;52.010;5.546;2022-09-17T01:48:09;12.30;75.20
67141;DHT22;54058;52.010;5.546;2022-09-17T01:53:13;12.30;75.20
67141;DHT22;54058;52.010;5.546;2022-09-17T01:55:41;12.30;76.70
67141;DHT22;54058;52.010;5.546;2022-09-17T01:58:19;12.30;75.30
67141;DHT22;54058;52.010;5.546;2022-09-17T02:00:49;12.20;75.20
67141;DHT22;54058;52.010;5.546;2022-09-17T02:03:23;12.20;75.30
67141;DHT22;54058;52.010;5.546;2022-09-17T02:06:08;12.20;75.50
67141;DHT22;54058;52.010;5.546;2022-09-17T02:08:41;12.20;75.40
67141;DHT22;54058;52.010;5.546;2022-09-17T02:11:09;12.20;75.50
67141;DHT22;54058;52.010;5.546;2022-09-17T02:16:25;12.20;75.70
67141;DHT22;54058;52.010;5.546;2022-09-17T02:19:09;12.20;75.80
67141;DHT22;54058;52.010;5.546;2022-09-17T02:21:45;12.20;75.80
67141;DHT22;54058;52.010;5.546;2022-09-17T02:27:07;12.20;76.00
67141;DHT22;54058;52.010;5.546;2022-09-17T02:29:38;12.20;76.10
67141;DHT22;54058;52.010;5.546;2022-09-17T02:32:04;12.30;76.00
67141;DHT22;54058;52.010;5.546;2022-09-17T02:34:31;12.30;75.90
67141;DHT22;54058;52.010;5.546;2022-09-17T02:36:57;12.30;75.90
67141;DHT22;54058;52.010;5.546;2022-09-17T02:39:26;12.30;75.90
67141;DHT22;54058;52.010;5.546;2022-09-17T02:42:20;12.20;75.80
67141;DHT22;54058;52.010;5.546;2022-09-17T02:45:11;12.20;76.00
67141;DHT22;54058;52.010;5.546;2022-09-17T02:51:09;12.10;76.10
67141;DHT22;54058;52.010;5.546;2022-09-17T02:53:56;12.10;76.20
67141;DHT22;54058;52.010;5.546;2022-09-17T02:56:27;12.10;76.00
67141;DHT22;54058;52.010;5.546;2022-09-17T03:01:49;12.10;76.00
67141;DHT22;54058;52.010;5.546;2022-09-17T03:04:17;12.00;75.90
67141;DHT22;54058;52.010;5.546;2022-09-17T03:06:47;12.00;75.80
67141;DHT22;54058;52.010;5.546;2022-09-17T03:09:14;12.00;75.90
67141;DHT22;54058;52.010;5.546;2022-09-17T03:11:40;12.10;75.90
67141;DHT22;54058;52.010;5.546;2022-09-17T03:14:06;12.00;75.70
67141;DHT22;54058;52.010;5.546;2022-09-17T03:16:32;12.00;75.80
67141;DHT22;54058;52.010;5.546;2022-09-17T03:18:57;12.00;75.80
67141;DHT22;54058;52.010;5.546;2022-09-17T03:21:23;11.90;75.80
67141;DHT22;54058;52.010;5.546;2022-09-17T03:23:48;11.90;75.90
67141;DHT22;54058;52.010;5.546;2022-09-17T03:26:14;11.80;75.90
67141;DHT22;54058;52.010;5.546;2022-09-17T03:28:40;11.80;76.60
67141;DHT22;54058;52.010;5.546;2022-09-17T03:31:05;11.80;76.10
67141;DHT22;54058;52.010;5.546;2022-09-17T03:33:36;11.80;76.80
67141;DHT22;54058;52.010;5.546;2022-09-17T03:36:01;11.80;76.20
67141;DHT22;54058;52.010;5.546;2022-09-17T03:38:27;11.80;76.20
67141;DHT22;54058;52.010;5.546;2022-09-17T03:41:04;11.80;76.20
67141;DHT22;54058;52.010;5.546;2022-09-17T03:43:31;11.80;76.20
67141;DHT22;54058;52.010;5.546;2022-09-17T03:45:57;11.80;76.00
67141;DHT22;54058;52.010;5.546;2022-09-17T03:48:23;11.70;76.10
67141;DHT22;54058;52.010;5.546;2022-09-17T03:50:49;11.70;76.20
67141;DHT22;54058;52.010;5.546;2022-09-17T03:53:15;11.70;76.20
67141;DHT22;54058;52.010;5.546;2022-09-17T03:55:41;11.70;76.30
67141;DHT22;54058;52.010;5.546;2022-09-17T03:58:07;11.70;76.20
67141;DHT22;54058;52.010;5.546;2022-09-17T04:00:33;11.70;76.20
67141;DHT22;54058;52.010;5.546;2022-09-17T04:03:02;11.70;76.30
67141;DHT22;54058;52.010;5.546;2022-09-17T04:05:27;11.70;76.20
67141;DHT22;54058;52.010;5.546;2022-09-17T04:07:53;11.70;76.20
67141;DHT22;54058;52.010;5.546;2022-09-17T04:10:18;11.70;76.20
67141;DHT22;54058;52.010;5.546;2022-09-17T04:12:44;11.70;76.20
67141;DHT22;54058;52.010;5.546;2022-09-17T04:15:10;11.60;76.20
67141;DHT22;54058;52.010;5.546;2022-09-17T04:17:35;11.60;76.40
67141;DHT22;54058;52.010;5.546;2022-09-17T04:20:02;11.70;76.30
67141;DHT22;54058;52.010;5.546;2022-09-17T04:22:28;11.70;76.30
67141;DHT22;54058;52.010;5.546;2022-09-17T04:24:54;11.60;76.40
67141;DHT22;54058;52.010;5.546;2022-09-17T04:27:19;11.50;76.60
67141;DHT22;54058;52.010;5.546;2022-09-17T04:29:45;11.50;76.70
67141;DHT22;54058;52.010;5.546;2022-09-17T04:32:11;11.50;76.70
67141;DHT22;54058;52.010;5.546;2022-09-17T04:34:36;11.50;76.80
67141;DHT22;54058;52.010;5.546;2022-09-17T04:37:02;11.50;76.80
67141;DHT22;54058;52.010;5.546;2022-09-17T04:39:27;11.50;76.90
67141;DHT22;54058;52.010;5.546;2022-09-17T04:41:54;11.60;76.90
67141;DHT22;54058;52.010;5.546;2022-09-17T04:44:19;11.60;76.90
67141;DHT22;54058;52.010;5.546;2022-09-17T04:46:45;11.70;76.80
67141;DHT22;54058;52.010;5.546;2022-09-17T04:49:10;11.70;76.90
67141;DHT22;54058;52.010;5.546;2022-09-17T04:51:37;11.70;76.80
67141;DHT22;54058;52.010;5.546;2022-09-17T04:54:03;11.70;76.70
67141;DHT22;54058;52.010;5.546;2022-09-17T04:56:29;11.70;76.70
67141;DHT22;54058;52.010;5.546;2022-09-17T04:58:54;11.70;77.30
67141;DHT22;54058;52.010;5.546;2022-09-17T05:01:20;11.70;76.50
67141;DHT22;54058;52.010;5.546;2022-09-17T05:03:45;11.70;76.60
67141;DHT22;54058;52.010;5.546;2022-09-17T05:06:11;11.70;76.50
67141;DHT22;54058;52.010;5.546;2022-09-17T05:08:38;11.70;76.60
67141;DHT22;54058;52.010;5.546;2022-09-17T05:11:04;11.70;76.70
67141;DHT22;54058;52.010;5.546;2022-09-17T05:13:29;11.70;76.50
67141;DHT22;54058;52.010;5.546;2022-09-17T05:15:55;11.80;76.60
67141;DHT22;54058;52.010;5.546;2022-09-17T05:18:24;11.80;76.50
67141;DHT22;54058;52.010;5.546;2022-09-17T05:20:50;11.80;76.40
67141;DHT22;54058;52.010;5.546;2022-09-17T05:23:16;11.80;76.50
67141;DHT22;54058;52.010;5.546;2022-09-17T05:25:42;11.80;76.40
67141;DHT22;54058;52.010;5.546;2022-09-17T05:28:08;11.70;76.30
67141;DHT22;54058;52.010;5.546;2022-09-17T05:30:33;11.70;76.40
67141;DHT22;54058;52.010;5.546;2022-09-17T05:33:00;11.60;76.40
67141;DHT22;54058;52.010;5.546;2022-09-17T05:35:27;11.60;76.60
67141;DHT22;54058;52.010;5.546;2022-09-17T05:38:00;11.60;76.50
67141;DHT22;54058;52.010;5.546;2022-09-17T05:40:26;11.60;76.50
67141;DHT22;54058;52.010;5.546;2022-09-17T05:42:57;11.50;77.00
67141;DHT22;54058;52.010;5.546;2022-09-17T05:45:23;11.50;76.50
67141;DHT22;54058;52.010;5.546;2022-09-17T05:47:56;11.50;76.60
67141;DHT22;54058;52.010;5.546;2022-09-17T05:50:22;11.60;77.30
67141;DHT22;54058;52.010;5.546;2022-09-17T05:52:49;11.60;76.70
67141;DHT22;54058;52.010;5.546;2022-09-17T05:55:15;11.60;76.60
67141;DHT22;54058;52.010;5.546;2022-09-17T05:57:40;11.60;76.60
67141;DHT22;54058;52.010;5.546;2022-09-17T06:00:06;11.60;76.60
67141;DHT22;54058;52.010;5.546;2022-09-17T06:02:32;11.60;76.70
67141;DHT22;54058;52.010;5.546;2022-09-17T06:04:58;11.70;76.70
67141;DHT22;54058;52.010;5.546;2022-09-17T06:07:26;11.70;76.60
67141;DHT22;54058;52.010;5.546;2022-09-17T06:09:52;11.80;76.50
67141;DHT22;54058;52.010;5.546;2022-09-17T06:12:18;11.80;76.60
67141;DHT22;54058;52.010;5.546;2022-09-17T06:14:44;11.90;76.70
67141;DHT22;54058;52.010;5.546;2022-09-17T06:17:10;12.00;76.50
67141;DHT22;54058;52.010;5.546;2022-09-17T06:19:35;12.00;76.40
67141;DHT22;54058;52.010;5.546;2022-09-17T06:22:01;12.00;76.50
67141;DHT22;54058;52.010;5.546;2022-09-17T06:24:26;12.10;76.50
67141;DHT22;54058;52.010;5.546;2022-09-17T06:26:52;12.10;76.40
67141;DHT22;54058;52.010;5.546;2022-09-17T06:29:21;12.10;76.40
67141;DHT22;54058;52.010;5.546;2022-09-17T06:31:47;12.10;76.40
67141;DHT22;54058;52.010;5.546;2022-09-17T06:34:13;12.20;77.00
67141;DHT22;54058;52.010;5.546;2022-09-17T06:36:38;12.30;76.40
67141;DHT22;54058;52.010;5.546;2022-09-17T06:39:04;12.30;76.30
67141;DHT22;54058;52.010;5.546;2022-09-17T06:41:30;12.30;76.30
67141;DHT22;54058;52.010;5.546;2022-09-17T06:43:56;12.30;76.40
67141;DHT22;54058;52.010;5.546;2022-09-17T06:46:21;12.40;76.50
67141;DHT22;54058;52.010;5.546;2022-09-17T06:48:47;12.40;76.50
67141;DHT22;54058;52.010;5.546;2022-09-17T06:51:13;12.40;76.50
67141;DHT22;54058;52.010;5.546;2022-09-17T06:53:39;12.50;76.50
67141;DHT22;54058;52.010;5.546;2022-09-17T06:56:06;12.60;76.70
67141;DHT22;54058;52.010;5.546;2022-09-17T06:58:34;12.60;76.70
67141;DHT22;54058;52.010;5.546;2022-09-17T07:01:05;12.70;76.70
67141;DHT22;54058;52.010;5.546;2022-09-17T07:03:32;12.80;76.60
67141;DHT22;54058;52.010;5.546;2022-09-17T07:05:58;12.90;76.60
67141;DHT22;54058;52.010;5.546;2022-09-17T07:08:23;13.00;76.60
67141;DHT22;54058;52.010;5.546;2022-09-17T07:10:50;13.10;76.70
67141;DHT22;54058;52.010;5.546;2022-09-17T07:13:19;13.20;76.50
67141;DHT22;54058;52.010;5.546;2022-09-17T07:15:54;13.30;76.50
67141;DHT22;54058;52.010;5.546;2022-09-17T07:18:20;13.50;76.20
67141;DHT22;54058;52.010;5.546;2022-09-17T07:20:58;13.40;76.00
67141;DHT22;54058;52.010;5.546;2022-09-17T07:23:26;13.50;76.30
67141;DHT22;54058;52.010;5.546;2022-09-17T07:25:57;13.70;76.40
67141;DHT22;54058;52.010;5.546;2022-09-17T07:28:24;13.70;76.20
67141;DHT22;54058;52.010;5.546;2022-09-17T07:30:50;13.70;76.10
67141;DHT22;54058;52.010;5.546;2022-09-17T07:33:22;13.70;76.10
67141;DHT22;54058;52.010;5.546;2022-09-17T07:35:59;13.80;76.00
67141;DHT22;54058;52.010;5.546;2022-09-17T07:38:26;14.30;75.90
67141;DHT22;54058;52.010;5.546;2022-09-17T07:41:03;14.70;75.70
67141;DHT22;54058;52.010;5.546;2022-09-17T07:43:32;14.70;74.80
67141;DHT22;54058;52.010;5.546;2022-09-17T07:45:59;14.80;75.50
67141;DHT22;54058;52.010;5.546;2022-09-17T07:48:26;14.80;75.60
67141;DHT22;54058;52.010;5.546;2022-09-17T07:50:53;14.80;75.90
67141;DHT22;54058;52.010;5.546;2022-09-17T07:53:19;14.90;75.60
67141;DHT22;54058;52.010;5.546;2022-09-17T07:56:02;14.80;75.00
67141;DHT22;54058;52.010;5.546;2022-09-17T07:58:30;14.70;73.60
67141;DHT22;54058;52.010;5.546;2022-09-17T08:01:05;14.70;75.10
67141;DHT22;54058;52.010;5.546;2022-09-17T08:03:33;14.70;75.00
67141;DHT22;54058;52.010;5.546;2022-09-17T08:06:04;14.60;74.90
67141;DHT22;54058;52.010;5.546;2022-09-17T08:08:31;14.60;75.20
67141;DHT22;54058;52.010;5.546;2022-09-17T08:11:06;14.50;75.10
67141;DHT22;54058;52.010;5.546;2022-09-17T08:13:32;14.60;75.20
67141;DHT22;54058;52.010;5.546;2022-09-17T08:16:03;14.80;74.90
67141;DHT22;54058;52.010;5.546;2022-09-17T08:18:30;14.90;74.60
67141;DHT22;54058;52.010;5.546;2022-09-17T08:20:56;15.00;74.80
67141;DHT22;54058;52.010;5.546;2022-09-17T08:23:22;15.00;74.80
67141;DHT22;54058;52.010;5.546;2022-09-17T08:25:55;14.80;74.30
67141;DHT22;54058;52.010;5.546;2022-09-17T08:28:22;14.80;72.80
67141;DHT22;54058;52.010;5.546;2022-09-17T08:30:50;14.80;74.30
67141;DHT22;54058;52.010;5.546;2022-09-17T08:33:16;14.80;74.10
67141;DHT22;54058;52.010;5.546;2022-09-17T08:35:49;14.90;73.80
67141;DHT22;54058;52.010;5.546;2022-09-17T08:38:14;14.90;73.40
67141;DHT22;54058;52.010;5.546;2022-09-17T08:40:50;15.00;73.70
67141;DHT22;54058;52.010;5.546;2022-09-17T08:43:18;15.10;73.00
67141;DHT22;54058;52.010;5.546;2022-09-17T08:45:51;15.10;73.30
67141;DHT22;54058;52.010;5.546;2022-09-17T08:48:17;14.80;72.80
67141;DHT22;54058;52.010;5.546;2022-09-17T08:50:43;14.60;73.80
67141;DHT22;54058;52.010;5.546;2022-09-17T08:56:12;14.40;72.90
67141;DHT22;54058;52.010;5.546;2022-09-17T08:58:43;14.30;73.50
67141;DHT22;54058;52.010;5.546;2022-09-17T09:06:52;14.50;72.90
67141;DHT22;54058;52.010;5.546;2022-09-17T09:09:22;14.70;72.80
67141;DHT22;54058;52.010;5.546;2022-09-17T09:11:57;14.90;72.90
67141;DHT22;54058;52.010;5.546;2022-09-17T09:14:31;15.00;72.10
67141;DHT22;54058;52.010;5.546;2022-09-17T09:17:06;15.10;71.70
67141;DHT22;54058;52.010;5.546;2022-09-17T09:19:42;15.20;70.80
67141;DHT22;54058;52.010;5.546;2022-09-17T09:22:35;15.20;70.80
67141;DHT22;54058;52.010;5.546;2022-09-17T09:30:59;15.60;70.80
67141;DHT22;54058;52.010;5.546;2022-09-17T09:33:31;15.70;68.50
67141;DHT22;54058;52.010;5.546;2022-09-17T09:35:58;15.80;70.20
67141;DHT22;54058;52.010;5.546;2022-09-17T09:38:52;15.80;69.80
67141;DHT22;54058;52.010;5.546;2022-09-17T09:41:38;15.80;68.50
67141;DHT22;54058;52.010;5.546;2022-09-17T09:44:10;16.00;70.50
67141;DHT22;54058;52.010;5.546;2022-09-17T09:52:10;16.30;70.30
67141;DHT22;54058;52.010;5.546;2022-09-17T09:57:47;16.60;67.50
67141;DHT22;54058;52.010;5.546;2022-09-17T10:00:29;16.60;69.30
67141;DHT22;54058;52.010;5.546;2022-09-17T10:03:14;16.60;70.50
67141;DHT22;54058;52.010;5.546;2022-09-17T10:06:14;16.70;70.20
67141;DHT22;54058;52.010;5.546;2022-09-17T10:09:07;16.70;69.40
67141;DHT22;54058;52.010;5.546;2022-09-17T10:11:28;16.60;70.40
67141;DHT22;54058;52.010;5.546;2022-09-17T10:14:26;16.30;66.80
67141;DHT22;54058;52.010;5.546;2022-09-17T10:19:42;16.20;70.90
67141;DHT22;54058;52.010;5.546;2022-09-17T10:22:28;16.10;71.70
67141;DHT22;54058;52.010;5.546;2022-09-17T10:24:56;15.90;72.10
67141;DHT22;54058;52.010;5.546;2022-09-17T10:27:23;15.50;72.20
67141;DHT22;54058;52.010;5.546;2022-09-17T10:30:15;14.90;73.00
67141;DHT22;54058;52.010;5.546;2022-09-17T10:32:42;14.60;73.90
67141;DHT22;54058;52.010;5.546;2022-09-17T10:37:48;14.50;75.10
67141;DHT22;54058;52.010;5.546;2022-09-17T10:40:34;14.80;75.10
67141;DHT22;54058;52.010;5.546;2022-09-17T10:45:45;15.20;74.80
67141;DHT22;54058;52.010;5.546;2022-09-17T10:48:21;15.40;74.00
67141;DHT22;54058;52.010;5.546;2022-09-17T10:50:53;15.60;73.70
67141;DHT22;54058;52.010;5.546;2022-09-17T10:53:21;15.80;73.40
67141;DHT22;54058;52.010;5.546;2022-09-17T10:56:17;15.90;73.10
67141;DHT22;54058;52.010;5.546;2022-09-17T11:04:17;15.90;72.60
67141;DHT22;54058;52.010;5.546;2022-09-17T11:07:11;16.00;72.30
67141;DHT22;54058;52.010;5.546;2022-09-17T11:10:11;15.90;71.80
67141;DHT22;54058;52.010;5.546;2022-09-17T11:15:47;16.00;71.90
67141;DHT22;54058;52.010;5.546;2022-09-17T11:32:35;16.80;69.40
67141;DHT22;54058;52.010;5.546;2022-09-17T11:35:08;16.90;68.00
67141;DHT22;54058;52.010;5.546;2022-09-17T11:37:51;17.00;68.90
67141;DHT22;54058;52.010;5.546;2022-09-17T11:40:26;17.10;68.40
67141;DHT22;54058;52.010;5.546;2022-09-17T11:43:26;17.10;68.80
67141;DHT22;54058;52.010;5.546;2022-09-17T11:54:18;16.70;67.40
67141;DHT22;54058;52.010;5.546;2022-09-17T11:56:48;16.80;65.40
67141;DHT22;54058;52.010;5.546;2022-09-17T11:59:55;17.00;68.30
67141;DHT22;54058;52.010;5.546;2022-09-17T12:05:41;17.40;65.00
67141;DHT22;54058;52.010;5.546;2022-09-17T12:08:26;17.40;66.10
67141;DHT22;54058;52.010;5.546;2022-09-17T12:13:59;17.00;63.10
67141;DHT22;54058;52.010;5.546;2022-09-17T12:16:37;16.60;60.50
67141;DHT22;54058;52.010;5.546;2022-09-17T12:21:38;16.40;62.30
67141;DHT22;54058;52.010;5.546;2022-09-17T12:24:20;16.50;66.40
67141;DHT22;54058;52.010;5.546;2022-09-17T12:49:22;15.80;66.60
67141;DHT22;54058;52.010;5.546;2022-09-17T12:52:01;15.90;68.70
67141;DHT22;54058;52.010;5.546;2022-09-17T12:57:30;16.10;69.00
67141;DHT22;54058;52.010;5.546;2022-09-17T13:00:10;16.10;69.10
67141;DHT22;54058;52.010;5.546;2022-09-17T13:05:13;15.60;69.20
67141;DHT22;54058;52.010;5.546;2022-09-17T13:19:15;15.90;68.60
67141;DHT22;54058;52.010;5.546;2022-09-17T13:22:00;16.00;68.30
67141;DHT22;54058;52.010;5.546;2022-09-17T13:24:29;15.70;67.10
67141;DHT22;54058;52.010;5.546;2022-09-17T13:26:56;15.40;67.70
67141;DHT22;54058;52.010;5.546;2022-09-17T13:38:11;15.10;68.30
67141;DHT22;54058;52.010;5.546;2022-09-17T13:40:32;15.20;67.90
67141;DHT22;54058;52.010;5.546;2022-09-17T13:43:08;15.20;68.30
67141;DHT22;54058;52.010;5.546;2022-09-17T13:48:25;15.30;67.70
67141;DHT22;54058;52.010;5.546;2022-09-17T13:50:52;15.40;68.40
67141;DHT22;54058;52.010;5.546;2022-09-17T13:53:21;15.50;68.50
67141;DHT22;54058;52.010;5.546;2022-09-17T13:55:54;15.50;68.40
67141;DHT22;54058;52.010;5.546;2022-09-17T13:58:25;15.60;68.20
67141;DHT22;54058;52.010;5.546;2022-09-17T14:00:58;15.80;67.70
67141;DHT22;54058;52.010;5.546;2022-09-17T14:05:56;16.10;65.60
67141;DHT22;54058;52.010;5.546;2022-09-17T14:08:28;16.00;65.50
67141;DHT22;54058;52.010;5.546;2022-09-17T14:10:56;15.80;65.20
67141;DHT22;54058;52.010;5.546;2022-09-17T14:13:26;15.70;66.10
67141;DHT22;54058;52.010;5.546;2022-09-17T14:15:57;15.50;66.10
67141;DHT22;54058;52.010;5.546;2022-09-17T14:21:09;15.40;65.60
67141;DHT22;54058;52.010;5.546;2022-09-17T14:23:51;15.50;64.80
67141;DHT22;54058;52.010;5.546;2022-09-17T14:32:16;15.60;64.20
67141;DHT22;54058;52.010;5.546;2022-09-17T14:34:46;15.50;65.10
67141;DHT22;54058;52.010;5.546;2022-09-17T14:37:15;15.40;65.40
67141;DHT22;54058;52.010;5.546;2022-09-17T14:39:43;15.40;65.70
67141;DHT22;54058;52.010;5.546;2022-09-17T14:42:17;15.50;65.50
67141;DHT22;54058;52.010;5.546;2022-09-17T14:45:16;15.50;65.20
67141;DHT22;54058;52.010;5.546;2022-09-17T14:47:43;15.50;64.50
67141;DHT22;54058;52.010;5.546;2022-09-17T14:50:23;15.60;65.60
67141;DHT22;54058;52.010;5.546;2022-09-17T14:52:51;15.60;64.60
67141;DHT22;54058;52.010;5.546;2022-09-17T14:55:22;15.60;64.70
67141;DHT22;54058;52.010;5.546;2022-09-17T14:57:52;15.60;64.60
67141;DHT22;54058;52.010;5.546;2022-09-17T15:00:21;15.60;64.00
67141;DHT22;54058;52.010;5.546;2022-09-17T15:02:52;15.60;64.20
67141;DHT22;54058;52.010;5.546;2022-09-17T15:05:29;15.60;64.10
67141;DHT22;54058;52.010;5.546;2022-09-17T15:10:45;15.60;64.20
67141;DHT22;54058;52.010;5.546;2022-09-17T15:13:15;15.70;63.80
67141;DHT22;54058;52.010;5.546;2022-09-17T15:15:55;15.70;63.40
67141;DHT22;54058;52.010;5.546;2022-09-17T15:18:32;15.80;63.30
67141;DHT22;54058;52.010;5.546;2022-09-17T15:21:02;15.80;63.40
67141;DHT22;54058;52.010;5.546;2022-09-17T15:23:29;15.80;62.60
67141;DHT22;54058;52.010;5.546;2022-09-17T15:25:58;15.80;63.10
67141;DHT22;54058;52.010;5.546;2022-09-17T15:28:35;15.80;62.90
67141;DHT22;54058;52.010;5.546;2022-09-17T15:31:04;15.80;60.40
67141;DHT22;54058;52.010;5.546;2022-09-17T15:33:31;15.80;62.20
67141;DHT22;54058;52.010;5.546;2022-09-17T15:38:29;15.90;62.90
67141;DHT22;54058;52.010;5.546;2022-09-17T15:41:22;15.90;62.80
67141;DHT22;54058;52.010;5.546;2022-09-17T15:43:48;16.00;59.90
67141;DHT22;54058;52.010;5.546;2022-09-17T15:46:22;16.00;63.00
67141;DHT22;54058;52.010;5.546;2022-09-17T15:48:49;16.10;61.90
67141;DHT22;54058;52.010;5.546;2022-09-17T15:51:30;16.20;63.20
67141;DHT22;54058;52.010;5.546;2022-09-17T15:54:24;16.20;62.00
67141;DHT22;54058;52.010;5.546;2022-09-17T15:56:54;16.20;62.90
67141;DHT22;54058;52.010;5.546;2022-09-17T15:59:26;16.00;62.80
67141;DHT22;54058;52.010;5.546;2022-09-17T16:01:54;15.80;63.20
67141;DHT22;54058;52.010;5.546;2022-09-17T16:04:28;15.60;63.50
67141;DHT22;54058;52.010;5.546;2022-09-17T16:09:46;15.40;63.70
67141;DHT22;54058;52.010;5.546;2022-09-17T16:12:15;15.30;63.80
67141;DHT22;54058;52.010;5.546;2022-09-17T16:14:43;15.20;64.00
67141;DHT22;54058;52.010;5.546;2022-09-17T16:19:54;15.20;61.90
67141;DHT22;54058;52.010;5.546;2022-09-17T16:22:21;15.20;64.20
67141;DHT22;54058;52.010;5.546;2022-09-17T16:24:46;15.20;64.30
67141;DHT22;54058;52.010;5.546;2022-09-17T16:27:26;15.20;64.10
67141;DHT22;54058;52.010;5.546;2022-09-17T16:30:03;15.10;63.90
67141;DHT22;54058;52.010;5.546;2022-09-17T16:32:29;15.10;64.00
67141;DHT22;54058;52.010;5.546;2022-09-17T16:34:55;15.10;64.30
67141;DHT22;54058;52.010;5.546;2022-09-17T16:37:21;15.10;64.40
67141;DHT22;54058;52.010;5.546;2022-09-17T16:39:47;15.10;64.50
67141;DHT22;54058;52.010;5.546;2022-09-17T16:42:12;15.10;64.50
67141;DHT22;54058;52.010;5.546;2022-09-17T16:44:47;15.10;64.40
67141;DHT22;54058;52.010;5.546;2022-09-17T16:47:13;15.10;64.70
67141;DHT22;54058;52.010;5.546;2022-09-17T16:49:39;15.10;64.70
67141;DHT22;54058;52.010;5.546;2022-09-17T16:52:04;15.10;64.80
67141;DHT22;54058;52.010;5.546;2022-09-17T16:54:30;15.10;64.80
67141;DHT22;54058;52.010;5.546;2022-09-17T16:56:55;15.10;64.90
67141;DHT22;54058;52.010;5.546;2022-09-17T16:59:21;15.20;64.90
67141;DHT22;54058;52.010;5.546;2022-09-17T17:01:47;15.10;65.00
67141;DHT22;54058;52.010;5.546;2022-09-17T17:04:14;15.10;64.90
67141;DHT22;54058;52.010;5.546;2022-09-17T17:06:40;15.10;65.10
67141;DHT22;54058;52.010;5.546;2022-09-17T17:09:08;15.10;65.00
67141;DHT22;54058;52.010;5.546;2022-09-17T17:11:34;15.10;64.80
67141;DHT22;54058;52.010;5.546;2022-09-17T17:13:59;15.00;64.80
67141;DHT22;54058;52.010;5.546;2022-09-17T17:16:29;15.00;64.90
67141;DHT22;54058;52.010;5.546;2022-09-17T17:18:55;15.00;64.90
67141;DHT22;54058;52.010;5.546;2022-09-17T17:21:21;14.90;64.90
67141;DHT22;54058;52.010;5.546;2022-09-17T17:23:47;14.90;65.20
67141;DHT22;54058;52.010;5.546;2022-09-17T17:26:14;14.80;65.40
67141;DHT22;54058;52.010;5.546;2022-09-17T17:28:40;14.80;65.60
67141;DHT22;54058;52.010;5.546;2022-09-17T17:31:06;14.80;65.90
67141;DHT22;54058;52.010;5.546;2022-09-17T17:33:33;14.70;66.00
67141;DHT22;54058;52.010;5.546;2022-09-17T17:35:59;14.60;66.20
67141;DHT22;54058;52.010;5.546;2022-09-17T17:38:25;14.60;66.40
67141;DHT22;54058;52.010;5.546;2022-09-17T17:41:03;14.50;66.20
67141;DHT22;54058;52.010;5.546;2022-09-17T17:43:29;14.50;66.70
67141;DHT22;54058;52.010;5.546;2022-09-17T17:45:54;14.40;66.70
67141;DHT22;54058;52.010;5.546;2022-09-17T17:48:20;14.40;66.90
67141;DHT22;54058;52.010;5.546;2022-09-17T17:50:46;14.40;67.00
67141;DHT22;54058;52.010;5.546;2022-09-17T17:53:11;14.30;67.10
67141;DHT22;54058;52.010;5.546;2022-09-17T17:55:37;14.30;67.30
67141;DHT22;54058;52.010;5.546;2022-09-17T17:58:02;14.30;67.40
67141;DHT22;54058;52.010;5.546;2022-09-17T18:00:28;14.30;67.40
67141;DHT22;54058;52.010;5.546;2022-09-17T18:02:54;14.30;67.50
67141;DHT22;54058;52.010;5.546;2022-09-17T18:05:19;14.20;67.50
67141;DHT22;54058;52.010;5.546;2022-09-17T18:07:46;14.20;67.60
67141;DHT22;54058;52.010;5.546;2022-09-17T18:10:12;14.20;67.90
67141;DHT22;54058;52.010;5.546;2022-09-17T18:12:38;14.10;68.10
67141;DHT22;54058;52.010;5.546;2022-09-17T18:15:05;14.10;68.20
67141;DHT22;54058;52.010;5.546;2022-09-17T18:17:30;14.00;68.40
67141;DHT22;54058;52.010;5.546;2022-09-17T18:19:56;13.90;68.70
67141;DHT22;54058;52.010;5.546;2022-09-17T18:22:22;13.80;68.70
67141;DHT22;54058;52.010;5.546;2022-09-17T18:24:48;13.80;68.80
67141;DHT22;54058;52.010;5.546;2022-09-17T18:27:14;13.80;68.90
67141;DHT22;54058;52.010;5.546;2022-09-17T18:29:39;13.80;69.50
67141;DHT22;54058;52.010;5.546;2022-09-17T18:32:05;13.80;69.00
67141;DHT22;54058;52.010;5.546;2022-09-17T18:34:31;13.80;69.10
67141;DHT22;54058;52.010;5.546;2022-09-17T18:36:56;13.80;69.10
67141;DHT22;54058;52.010;5.546;2022-09-17T18:39:22;13.80;69.20
67141;DHT22;54058;52.010;5.546;2022-09-17T18:41:48;13.80;69.30
67141;DHT22;54058;52.010;5.546;2022-09-17T18:44:13;13.80;69.60
67141;DHT22;54058;52.010;5.546;2022-09-17T18:46:39;13.70;69.70
67141;DHT22;54058;52.010;5.546;2022-09-17T18:49:06;13.70;69.90
67141;DHT22;54058;52.010;5.546;2022-09-17T18:51:32;13.60;71.80
67141;DHT22;54058;52.010;5.546;2022-09-17T18:53:58;13.50;69.80